Terminal Aerodrome Forecast
Issued by NWS

Home | Current Version | Previous Version | Text Only | Print | Product List | Glossary On
Versions: 1 2 3 4 5 6 7 8 9 10 11 12 13 14 15 16 17 18 19 20
321
FTUS42 KTAE 290522
TAFECP
TAF
KECP 290522Z 2906/3006 00000KT 2SM BR BKN009
      TEMPO 2906/2909 1/2SM FG BKN005
     FM290900 00000KT 1/2SM FG BKN004
     FM291400 13005KT P6SM SCT020
     FM291800 19010KT P6SM SCT040=

USA.gov is the U.S. government's official web portal to all federal, state and local government web resources and services.